sensor_id;sensor_type;location;lat;lon;timestamp;temperature;humidity
290;DHT22;13193;48.874;9.086;2022-07-23T00:02:07;24.20;1.00
290;DHT22;13193;48.874;9.086;2022-07-23T00:04:35;24.20;1.00
290;DHT22;13193;48.874;9.086;2022-07-23T00:07:01;24.10;1.00
290;DHT22;13193;48.874;9.086;2022-07-23T00:09:26;24.10;1.00
290;DHT22;13193;48.874;9.086;2022-07-23T00:11:54;24.10;1.00
290;DHT22;13193;48.874;9.086;2022-07-23T00:14:19;24.10;1.00
290;DHT22;13193;48.874;9.086;2022-07-23T00:16:45;24.10;1.00
290;DHT22;13193;48.874;9.086;2022-07-23T00:19:11;24.10;1.00
290;DHT22;13193;48.874;9.086;2022-07-23T00:21:36;24.10;1.00
290;DHT22;13193;48.874;9.086;2022-07-23T00:24:02;24.10;1.00
290;DHT22;13193;48.874;9.086;2022-07-23T00:26:28;24.00;1.00
290;DHT22;13193;48.874;9.086;2022-07-23T00:28:53;24.00;1.00
290;DHT22;13193;48.874;9.086;2022-07-23T00:31:19;24.00;1.00
290;DHT22;13193;48.874;9.086;2022-07-23T00:33:45;24.00;1.00
290;DHT22;13193;48.874;9.086;2022-07-23T00:36:10;24.00;1.00
290;DHT22;13193;48.874;9.086;2022-07-23T00:38:36;24.10;1.00
290;DHT22;13193;48.874;9.086;2022-07-23T00:41:04;24.00;1.00
290;DHT22;13193;48.874;9.086;2022-07-23T00:43:29;24.00;1.00
290;DHT22;13193;48.874;9.086;2022-07-23T00:45:55;24.00;1.00
290;DHT22;13193;48.874;9.086;2022-07-23T00:48:21;24.00;1.00
290;DHT22;13193;48.874;9.086;2022-07-23T00:50:47;24.00;1.00
290;DHT22;13193;48.874;9.086;2022-07-23T00:53:12;24.00;1.00
290;DHT22;13193;48.874;9.086;2022-07-23T00:55:38;23.90;1.00
290;DHT22;13193;48.874;9.086;2022-07-23T00:58:04;23.90;1.00
290;DHT22;13193;48.874;9.086;2022-07-23T01:00:30;23.80;1.00
290;DHT22;13193;48.874;9.086;2022-07-23T01:02:56;23.80;1.00
290;DHT22;13193;48.874;9.086;2022-07-23T01:05:21;23.80;1.00
290;DHT22;13193;48.874;9.086;2022-07-23T01:07:50;23.70;1.00
290;DHT22;13193;48.874;9.086;2022-07-23T01:10:16;23.70;1.00
290;DHT22;13193;48.874;9.086;2022-07-23T01:13:05;23.60;1.00
290;DHT22;13193;48.874;9.086;2022-07-23T01:15:32;23.60;1.00
290;DHT22;13193;48.874;9.086;2022-07-23T01:17:58;23.50;1.00
290;DHT22;13193;48.874;9.086;2022-07-23T01:20:24;23.50;1.00
290;DHT22;13193;48.874;9.086;2022-07-23T01:22:51;23.50;1.00
290;DHT22;13193;48.874;9.086;2022-07-23T01:25:17;23.50;1.00
290;DHT22;13193;48.874;9.086;2022-07-23T01:27:42;23.50;1.00
290;DHT22;13193;48.874;9.086;2022-07-23T01:30:09;23.40;1.00
290;DHT22;13193;48.874;9.086;2022-07-23T01:32:35;23.40;1.00
290;DHT22;13193;48.874;9.086;2022-07-23T01:35:01;23.20;1.00
290;DHT22;13193;48.874;9.086;2022-07-23T01:37:26;23.20;1.00
290;DHT22;13193;48.874;9.086;2022-07-23T01:39:54;23.10;1.00
290;DHT22;13193;48.874;9.086;2022-07-23T01:42:20;23.00;1.00
290;DHT22;13193;48.874;9.086;2022-07-23T01:44:45;22.90;1.00
290;DHT22;13193;48.874;9.086;2022-07-23T01:47:13;22.90;1.00
290;DHT22;13193;48.874;9.086;2022-07-23T01:49:39;22.80;1.00
290;DHT22;13193;48.874;9.086;2022-07-23T01:52:07;22.70;1.00
290;DHT22;13193;48.874;9.086;2022-07-23T01:54:37;22.70;1.00
290;DHT22;13193;48.874;9.086;2022-07-23T01:57:04;22.70;1.00
290;DHT22;13193;48.874;9.086;2022-07-23T01:59:32;22.60;1.00
290;DHT22;13193;48.874;9.086;2022-07-23T02:02:05;22.60;1.00
290;DHT22;13193;48.874;9.086;2022-07-23T02:04:31;22.50;1.00
290;DHT22;13193;48.874;9.086;2022-07-23T02:07:00;22.40;1.00
290;DHT22;13193;48.874;9.086;2022-07-23T02:09:31;22.40;1.00
290;DHT22;13193;48.874;9.086;2022-07-23T02:12:00;22.30;1.00
290;DHT22;13193;48.874;9.086;2022-07-23T02:14:28;22.20;1.00
290;DHT22;13193;48.874;9.086;2022-07-23T02:16:53;22.20;1.00
290;DHT22;13193;48.874;9.086;2022-07-23T02:19:23;22.10;1.00
290;DHT22;13193;48.874;9.086;2022-07-23T02:21:55;22.00;1.00
290;DHT22;13193;48.874;9.086;2022-07-23T02:24:23;22.00;1.00
290;DHT22;13193;48.874;9.086;2022-07-23T02:26:50;22.00;1.00
290;DHT22;13193;48.874;9.086;2022-07-23T02:29:16;22.00;1.00
290;DHT22;13193;48.874;9.086;2022-07-23T02:31:43;21.90;1.00
290;DHT22;13193;48.874;9.086;2022-07-23T02:34:16;21.90;1.00
290;DHT22;13193;48.874;9.086;2022-07-23T02:36:49;21.90;1.00
290;DHT22;13193;48.874;9.086;2022-07-23T02:39:14;21.90;1.00
290;DHT22;13193;48.874;9.086;2022-07-23T02:41:47;21.90;1.00
290;DHT22;13193;48.874;9.086;2022-07-23T02:44:13;21.90;1.00
290;DHT22;13193;48.874;9.086;2022-07-23T02:46:41;21.80;1.00
290;DHT22;13193;48.874;9.086;2022-07-23T02:49:07;21.80;1.00
290;DHT22;13193;48.874;9.086;2022-07-23T02:51:34;21.80;1.00
290;DHT22;13193;48.874;9.086;2022-07-23T02:54:00;21.80;1.00
290;DHT22;13193;48.874;9.086;2022-07-23T02:56:26;21.90;1.00
290;DHT22;13193;48.874;9.086;2022-07-23T02:58:51;21.90;1.00
290;DHT22;13193;48.874;9.086;2022-07-23T03:01:19;21.90;1.00
290;DHT22;13193;48.874;9.086;2022-07-23T03:03:45;21.90;1.00
290;DHT22;13193;48.874;9.086;2022-07-23T03:06:10;22.00;1.00
290;DHT22;13193;48.874;9.086;2022-07-23T03:08:41;21.90;1.00
290;DHT22;13193;48.874;9.086;2022-07-23T03:11:09;21.90;1.00
290;DHT22;13193;48.874;9.086;2022-07-23T03:13:40;22.00;1.00
290;DHT22;13193;48.874;9.086;2022-07-23T03:16:07;22.00;1.00
290;DHT22;13193;48.874;9.086;2022-07-23T03:18:33;22.00;1.00
290;DHT22;13193;48.874;9.086;2022-07-23T03:21:01;22.00;1.00
290;DHT22;13193;48.874;9.086;2022-07-23T03:23:27;21.90;1.00
290;DHT22;13193;48.874;9.086;2022-07-23T03:25:56;21.90;1.00
290;DHT22;13193;48.874;9.086;2022-07-23T03:28:31;21.90;1.00
290;DHT22;13193;48.874;9.086;2022-07-23T03:30:57;21.90;1.00
290;DHT22;13193;48.874;9.086;2022-07-23T03:33:23;22.00;1.00
290;DHT22;13193;48.874;9.086;2022-07-23T03:35:49;22.10;1.00
290;DHT22;13193;48.874;9.086;2022-07-23T03:38:17;22.10;1.00
290;DHT22;13193;48.874;9.086;2022-07-23T03:40:43;22.10;1.00
290;DHT22;13193;48.874;9.086;2022-07-23T03:43:11;22.10;1.00
290;DHT22;13193;48.874;9.086;2022-07-23T03:45:37;22.00;1.00
290;DHT22;13193;48.874;9.086;2022-07-23T03:48:05;21.90;1.00
290;DHT22;13193;48.874;9.086;2022-07-23T03:50:35;21.80;1.00
290;DHT22;13193;48.874;9.086;2022-07-23T03:53:03;21.70;1.00
290;DHT22;13193;48.874;9.086;2022-07-23T03:55:28;21.60;1.00
290;DHT22;13193;48.874;9.086;2022-07-23T03:57:54;21.60;1.00
290;DHT22;13193;48.874;9.086;2022-07-23T04:00:20;21.50;1.00
290;DHT22;13193;48.874;9.086;2022-07-23T04:02:47;21.50;1.00
290;DHT22;13193;48.874;9.086;2022-07-23T04:05:13;21.40;1.00
290;DHT22;13193;48.874;9.086;2022-07-23T04:07:39;21.40;1.00
290;DHT22;13193;48.874;9.086;2022-07-23T04:10:06;21.30;1.00
290;DHT22;13193;48.874;9.086;2022-07-23T04:12:32;21.30;1.00
290;DHT22;13193;48.874;9.086;2022-07-23T04:14:58;21.30;1.00
290;DHT22;13193;48.874;9.086;2022-07-23T04:17:26;21.30;1.00
290;DHT22;13193;48.874;9.086;2022-07-23T04:19:53;21.30;1.00
290;DHT22;13193;48.874;9.086;2022-07-23T04:22:19;21.30;1.00
290;DHT22;13193;48.874;9.086;2022-07-23T04:24:45;21.40;1.00
290;DHT22;13193;48.874;9.086;2022-07-23T04:27:10;21.40;1.00
290;DHT22;13193;48.874;9.086;2022-07-23T04:29:38;21.50;1.00
290;DHT22;13193;48.874;9.086;2022-07-23T04:32:04;21.50;1.00
290;DHT22;13193;48.874;9.086;2022-07-23T04:34:30;21.60;1.00
290;DHT22;13193;48.874;9.086;2022-07-23T04:36:58;21.70;1.00
290;DHT22;13193;48.874;9.086;2022-07-23T04:39:26;21.70;1.00
290;DHT22;13193;48.874;9.086;2022-07-23T04:41:54;21.80;1.00
290;DHT22;13193;48.874;9.086;2022-07-23T04:44:19;21.90;1.00
290;DHT22;13193;48.874;9.086;2022-07-23T04:46:45;22.00;1.00
290;DHT22;13193;48.874;9.086;2022-07-23T04:49:11;22.00;1.00
290;DHT22;13193;48.874;9.086;2022-07-23T04:51:36;22.00;1.00
290;DHT22;13193;48.874;9.086;2022-07-23T04:54:02;22.10;1.00
290;DHT22;13193;48.874;9.086;2022-07-23T04:56:28;22.20;1.00
290;DHT22;13193;48.874;9.086;2022-07-23T04:58:53;22.30;1.00
290;DHT22;13193;48.874;9.086;2022-07-23T05:01:19;22.30;1.00
290;DHT22;13193;48.874;9.086;2022-07-23T05:03:45;22.40;1.00
290;DHT22;13193;48.874;9.086;2022-07-23T05:06:10;22.50;1.00
290;DHT22;13193;48.874;9.086;2022-07-23T05:08:36;22.60;1.00
290;DHT22;13193;48.874;9.086;2022-07-23T05:11:04;22.70;1.00
290;DHT22;13193;48.874;9.086;2022-07-23T05:13:30;22.80;1.00
290;DHT22;13193;48.874;9.086;2022-07-23T05:15:55;22.90;1.00
290;DHT22;13193;48.874;9.086;2022-07-23T05:18:21;23.10;1.00
290;DHT22;13193;48.874;9.086;2022-07-23T05:20:47;23.40;1.00
290;DHT22;13193;48.874;9.086;2022-07-23T05:23:12;23.80;1.00
290;DHT22;13193;48.874;9.086;2022-07-23T05:25:39;24.30;1.00
290;DHT22;13193;48.874;9.086;2022-07-23T05:28:05;24.50;1.00
290;DHT22;13193;48.874;9.086;2022-07-23T05:30:30;24.60;1.00
290;DHT22;13193;48.874;9.086;2022-07-23T05:32:56;24.60;1.00
290;DHT22;13193;48.874;9.086;2022-07-23T05:35:22;24.50;1.00
290;DHT22;13193;48.874;9.086;2022-07-23T05:37:47;24.50;1.00
290;DHT22;13193;48.874;9.086;2022-07-23T05:40:13;24.50;1.00
290;DHT22;13193;48.874;9.086;2022-07-23T05:42:40;24.50;1.00
290;DHT22;13193;48.874;9.086;2022-07-23T05:45:06;24.50;1.00
290;DHT22;13193;48.874;9.086;2022-07-23T05:47:49;24.60;1.00
290;DHT22;13193;48.874;9.086;2022-07-23T05:50:15;24.60;1.00
290;DHT22;13193;48.874;9.086;2022-07-23T05:52:42;24.60;1.00
290;DHT22;13193;48.874;9.086;2022-07-23T05:55:09;24.40;1.00
290;DHT22;13193;48.874;9.086;2022-07-23T05:57:35;24.20;1.00
290;DHT22;13193;48.874;9.086;2022-07-23T06:00:03;24.00;1.00
290;DHT22;13193;48.874;9.086;2022-07-23T06:02:30;23.80;1.00
290;DHT22;13193;48.874;9.086;2022-07-23T06:04:55;23.60;1.00
290;DHT22;13193;48.874;9.086;2022-07-23T06:07:21;23.50;1.00
290;DHT22;13193;48.874;9.086;2022-07-23T06:09:47;23.40;1.00
290;DHT22;13193;48.874;9.086;2022-07-23T06:12:17;23.20;1.00
290;DHT22;13193;48.874;9.086;2022-07-23T06:14:43;23.20;1.00
290;DHT22;13193;48.874;9.086;2022-07-23T06:17:09;23.10;1.00
290;DHT22;13193;48.874;9.086;2022-07-23T06:19:34;23.10;1.00
290;DHT22;13193;48.874;9.086;2022-07-23T06:22:00;23.20;1.00
290;DHT22;13193;48.874;9.086;2022-07-23T06:24:26;23.30;1.00
290;DHT22;13193;48.874;9.086;2022-07-23T06:26:51;23.40;1.00
290;DHT22;13193;48.874;9.086;2022-07-23T06:29:19;23.70;1.00
290;DHT22;13193;48.874;9.086;2022-07-23T06:31:47;24.10;1.00
290;DHT22;13193;48.874;9.086;2022-07-23T06:34:13;24.50;1.00
290;DHT22;13193;48.874;9.086;2022-07-23T06:36:38;24.90;1.00
290;DHT22;13193;48.874;9.086;2022-07-23T06:39:06;25.10;1.00
290;DHT22;13193;48.874;9.086;2022-07-23T06:41:32;25.30;1.00
290;DHT22;13193;48.874;9.086;2022-07-23T06:43:57;25.40;1.00
290;DHT22;13193;48.874;9.086;2022-07-23T06:46:23;25.30;1.00
290;DHT22;13193;48.874;9.086;2022-07-23T06:48:49;25.20;1.00
290;DHT22;13193;48.874;9.086;2022-07-23T06:51:17;25.00;1.00
290;DHT22;13193;48.874;9.086;2022-07-23T06:53:42;24.70;1.00
290;DHT22;13193;48.874;9.086;2022-07-23T06:56:08;24.40;1.00
290;DHT22;13193;48.874;9.086;2022-07-23T06:58:34;24.10;1.00
290;DHT22;13193;48.874;9.086;2022-07-23T07:00:59;23.70;1.00
290;DHT22;13193;48.874;9.086;2022-07-23T07:03:25;23.40;1.00
290;DHT22;13193;48.874;9.086;2022-07-23T07:05:50;23.20;1.00
290;DHT22;13193;48.874;9.086;2022-07-23T07:08:17;23.00;1.00
290;DHT22;13193;48.874;9.086;2022-07-23T07:10:43;22.80;1.00
290;DHT22;13193;48.874;9.086;2022-07-23T07:13:08;22.60;1.00
290;DHT22;13193;48.874;9.086;2022-07-23T07:15:34;22.30;1.00
290;DHT22;13193;48.874;9.086;2022-07-23T07:18:00;22.10;1.00
290;DHT22;13193;48.874;9.086;2022-07-23T07:20:25;22.00;1.00
290;DHT22;13193;48.874;9.086;2022-07-23T07:22:51;22.00;1.00
290;DHT22;13193;48.874;9.086;2022-07-23T07:25:17;22.00;1.00
290;DHT22;13193;48.874;9.086;2022-07-23T07:27:43;22.00;1.00
290;DHT22;13193;48.874;9.086;2022-07-23T07:30:12;22.00;1.00
290;DHT22;13193;48.874;9.086;2022-07-23T07:32:38;22.10;1.00
290;DHT22;13193;48.874;9.086;2022-07-23T07:35:05;22.30;1.00
290;DHT22;13193;48.874;9.086;2022-07-23T07:37:31;22.60;1.00
290;DHT22;13193;48.874;9.086;2022-07-23T07:39:57;22.70;1.00
290;DHT22;13193;48.874;9.086;2022-07-23T07:42:23;22.90;1.00
290;DHT22;13193;48.874;9.086;2022-07-23T07:44:48;23.00;1.00
290;DHT22;13193;48.874;9.086;2022-07-23T07:47:14;23.20;1.00
290;DHT22;13193;48.874;9.086;2022-07-23T07:49:44;23.40;1.00
290;DHT22;13193;48.874;9.086;2022-07-23T07:52:10;23.60;1.00
290;DHT22;13193;48.874;9.086;2022-07-23T07:54:36;23.70;1.00
290;DHT22;13193;48.874;9.086;2022-07-23T07:57:02;23.80;1.00
290;DHT22;13193;48.874;9.086;2022-07-23T07:59:30;23.80;1.00
290;DHT22;13193;48.874;9.086;2022-07-23T08:01:56;23.80;1.00
290;DHT22;13193;48.874;9.086;2022-07-23T08:04:21;23.70;1.00
290;DHT22;13193;48.874;9.086;2022-07-23T08:06:52;23.60;1.00
290;DHT22;13193;48.874;9.086;2022-07-23T08:09:18;23.60;1.00
290;DHT22;13193;48.874;9.086;2022-07-23T08:11:43;23.60;1.00
290;DHT22;13193;48.874;9.086;2022-07-23T08:14:09;23.60;1.00
290;DHT22;13193;48.874;9.086;2022-07-23T08:16:36;23.60;1.00
290;DHT22;13193;48.874;9.086;2022-07-23T08:19:04;23.70;1.00
290;DHT22;13193;48.874;9.086;2022-07-23T08:21:32;23.90;1.00
290;DHT22;13193;48.874;9.086;2022-07-23T08:23:58;24.10;1.00
290;DHT22;13193;48.874;9.086;2022-07-23T08:26:24;24.50;1.00
290;DHT22;13193;48.874;9.086;2022-07-23T08:28:52;24.90;1.00
290;DHT22;13193;48.874;9.086;2022-07-23T08:31:18;25.30;1.00
290;DHT22;13193;48.874;9.086;2022-07-23T08:33:47;25.80;1.00
290;DHT22;13193;48.874;9.086;2022-07-23T08:36:12;26.20;1.00
290;DHT22;13193;48.874;9.086;2022-07-23T08:38:40;26.60;1.00
290;DHT22;13193;48.874;9.086;2022-07-23T08:41:09;27.00;1.00
290;DHT22;13193;48.874;9.086;2022-07-23T08:43:35;27.20;1.00
290;DHT22;13193;48.874;9.086;2022-07-23T08:46:02;27.60;1.00
290;DHT22;13193;48.874;9.086;2022-07-23T08:48:30;27.70;1.00
290;DHT22;13193;48.874;9.086;2022-07-23T08:51:05;28.00;1.00
290;DHT22;13193;48.874;9.086;2022-07-23T08:53:34;28.00;1.00
290;DHT22;13193;48.874;9.086;2022-07-23T08:56:04;28.00;1.00
290;DHT22;13193;48.874;9.086;2022-07-23T08:58:31;28.00;1.00
290;DHT22;13193;48.874;9.086;2022-07-23T09:00:57;28.10;1.00
290;DHT22;13193;48.874;9.086;2022-07-23T09:03:33;28.10;1.00
290;DHT22;13193;48.874;9.086;2022-07-23T09:05:59;28.10;1.00
290;DHT22;13193;48.874;9.086;2022-07-23T09:08:38;28.00;1.00
290;DHT22;13193;48.874;9.086;2022-07-23T09:11:16;27.70;1.00
290;DHT22;13193;48.874;9.086;2022-07-23T09:13:53;27.60;1.00
290;DHT22;13193;48.874;9.086;2022-07-23T09:16:31;27.50;1.00
290;DHT22;13193;48.874;9.086;2022-07-23T09:18:59;27.50;1.00
290;DHT22;13193;48.874;9.086;2022-07-23T09:21:27;27.60;1.00
290;DHT22;13193;48.874;9.086;2022-07-23T09:24:02;27.70;1.00
290;DHT22;13193;48.874;9.086;2022-07-23T09:26:44;27.70;1.00
290;DHT22;13193;48.874;9.086;2022-07-23T09:29:23;27.90;1.00
290;DHT22;13193;48.874;9.086;2022-07-23T09:31:55;28.20;1.00
290;DHT22;13193;48.874;9.086;2022-07-23T09:34:25;28.40;1.00
290;DHT22;13193;48.874;9.086;2022-07-23T09:37:08;28.60;1.00
290;DHT22;13193;48.874;9.086;2022-07-23T09:39:34;28.80;1.00
290;DHT22;13193;48.874;9.086;2022-07-23T09:44:44;28.70;1.00
290;DHT22;13193;48.874;9.086;2022-07-23T09:47:10;28.40;1.00
290;DHT22;13193;48.874;9.086;2022-07-23T09:49:36;28.20;1.00
290;DHT22;13193;48.874;9.086;2022-07-23T09:52:03;28.10;1.00
290;DHT22;13193;48.874;9.086;2022-07-23T09:54:31;28.00;1.00
290;DHT22;13193;48.874;9.086;2022-07-23T09:57:00;28.00;1.00
290;DHT22;13193;48.874;9.086;2022-07-23T09:59:29;27.90;1.00
290;DHT22;13193;48.874;9.086;2022-07-23T10:01:57;27.90;1.00
290;DHT22;13193;48.874;9.086;2022-07-23T10:04:26;27.80;1.00
290;DHT22;13193;48.874;9.086;2022-07-23T10:06:59;27.80;1.00
290;DHT22;13193;48.874;9.086;2022-07-23T10:09:31;27.80;1.00
290;DHT22;13193;48.874;9.086;2022-07-23T10:11:59;27.70;1.00
290;DHT22;13193;48.874;9.086;2022-07-23T10:14:43;27.50;1.00
290;DHT22;13193;48.874;9.086;2022-07-23T10:17:09;27.60;1.00
290;DHT22;13193;48.874;9.086;2022-07-23T10:19:35;27.60;1.00
290;DHT22;13193;48.874;9.086;2022-07-23T10:22:18;27.50;1.00
290;DHT22;13193;48.874;9.086;2022-07-23T10:30:36;27.60;1.00
290;DHT22;13193;48.874;9.086;2022-07-23T10:35:58;27.60;1.00
290;DHT22;13193;48.874;9.086;2022-07-23T10:41:14;27.80;1.00
290;DHT22;13193;48.874;9.086;2022-07-23T10:43:43;27.80;1.00
290;DHT22;13193;48.874;9.086;2022-07-23T10:46:23;28.00;1.00
290;DHT22;13193;48.874;9.086;2022-07-23T10:49:25;28.10;1.00
290;DHT22;13193;48.874;9.086;2022-07-23T10:57:12;28.10;1.00
290;DHT22;13193;48.874;9.086;2022-07-23T11:02:29;28.30;1.00
290;DHT22;13193;48.874;9.086;2022-07-23T11:05:00;28.40;1.00
290;DHT22;13193;48.874;9.086;2022-07-23T11:07:26;28.50;1.00
290;DHT22;13193;48.874;9.086;2022-07-23T11:09:54;28.50;1.00
290;DHT22;13193;48.874;9.086;2022-07-23T11:15:07;28.50;1.00
290;DHT22;13193;48.874;9.086;2022-07-23T11:20:21;28.50;1.00
290;DHT22;13193;48.874;9.086;2022-07-23T11:22:51;28.50;1.00
290;DHT22;13193;48.874;9.086;2022-07-23T11:27:53;28.50;1.00
290;DHT22;13193;48.874;9.086;2022-07-23T11:33:15;28.50;1.00
290;DHT22;13193;48.874;9.086;2022-07-23T11:35:45;28.60;1.00
290;DHT22;13193;48.874;9.086;2022-07-23T11:38:22;28.70;1.00
290;DHT22;13193;48.874;9.086;2022-07-23T11:40:55;28.70;1.00
290;DHT22;13193;48.874;9.086;2022-07-23T11:43:23;28.70;1.00
290;DHT22;13193;48.874;9.086;2022-07-23T11:45:53;28.70;1.00
290;DHT22;13193;48.874;9.086;2022-07-23T11:48:22;28.70;1.00
290;DHT22;13193;48.874;9.086;2022-07-23T11:50:49;28.60;1.00
290;DHT22;13193;48.874;9.086;2022-07-23T11:53:28;28.60;1.00
290;DHT22;13193;48.874;9.086;2022-07-23T11:56:09;28.60;1.00
290;DHT22;13193;48.874;9.086;2022-07-23T11:58:35;28.80;1.00
290;DHT22;13193;48.874;9.086;2022-07-23T12:01:01;28.90;1.00
290;DHT22;13193;48.874;9.086;2022-07-23T12:03:27;29.00;1.00
290;DHT22;13193;48.874;9.086;2022-07-23T12:05:57;29.10;1.00
290;DHT22;13193;48.874;9.086;2022-07-23T12:08:23;29.30;1.00
290;DHT22;13193;48.874;9.086;2022-07-23T12:10:48;29.40;1.00
290;DHT22;13193;48.874;9.086;2022-07-23T12:13:17;29.40;1.00
290;DHT22;13193;48.874;9.086;2022-07-23T12:15:46;29.40;1.00
290;DHT22;13193;48.874;9.086;2022-07-23T12:18:17;29.40;1.00
290;DHT22;13193;48.874;9.086;2022-07-23T12:20:47;29.40;1.00
290;DHT22;13193;48.874;9.086;2022-07-23T12:23:15;29.30;1.00
290;DHT22;13193;48.874;9.086;2022-07-23T12:25:44;29.20;1.00
290;DHT22;13193;48.874;9.086;2022-07-23T12:28:16;29.10;1.00
290;DHT22;13193;48.874;9.086;2022-07-23T12:30:47;29.10;1.00
290;DHT22;13193;48.874;9.086;2022-07-23T12:33:18;29.20;1.00
290;DHT22;13193;48.874;9.086;2022-07-23T12:35:47;29.20;1.00
290;DHT22;13193;48.874;9.086;2022-07-23T12:38:16;29.20;1.00
290;DHT22;13193;48.874;9.086;2022-07-23T12:40:50;29.20;1.00
290;DHT22;13193;48.874;9.086;2022-07-23T12:43:23;29.30;1.00
290;DHT22;13193;48.874;9.086;2022-07-23T12:46:04;29.40;1.00
290;DHT22;13193;48.874;9.086;2022-07-23T12:48:35;29.50;1.00
290;DHT22;13193;48.874;9.086;2022-07-23T12:51:09;29.70;1.00
290;DHT22;13193;48.874;9.086;2022-07-23T12:53:49;29.90;1.00
290;DHT22;13193;48.874;9.086;2022-07-23T12:56:17;29.90;1.00
290;DHT22;13193;48.874;9.086;2022-07-23T12:58:52;30.10;1.00
290;DHT22;13193;48.874;9.086;2022-07-23T13:06:36;30.30;1.00
290;DHT22;13193;48.874;9.086;2022-07-23T13:09:04;30.40;1.00
290;DHT22;13193;48.874;9.086;2022-07-23T13:11:30;30.40;1.00
290;DHT22;13193;48.874;9.086;2022-07-23T13:13:59;30.40;1.00
290;DHT22;13193;48.874;9.086;2022-07-23T13:16:29;30.10;1.00
290;DHT22;13193;48.874;9.086;2022-07-23T13:18:55;29.90;1.00
290;DHT22;13193;48.874;9.086;2022-07-23T13:21:24;29.80;1.00
290;DHT22;13193;48.874;9.086;2022-07-23T13:23:50;29.60;1.00
290;DHT22;13193;48.874;9.086;2022-07-23T13:26:15;29.40;1.00
290;DHT22;13193;48.874;9.086;2022-07-23T13:28:41;29.20;1.00
290;DHT22;13193;48.874;9.086;2022-07-23T13:31:07;29.10;1.00
290;DHT22;13193;48.874;9.086;2022-07-23T13:33:34;29.10;1.00
290;DHT22;13193;48.874;9.086;2022-07-23T13:36:00;29.00;1.00
290;DHT22;13193;48.874;9.086;2022-07-23T13:38:26;29.00;1.00
290;DHT22;13193;48.874;9.086;2022-07-23T13:40:55;29.10;1.00
290;DHT22;13193;48.874;9.086;2022-07-23T13:43:22;29.20;1.00
290;DHT22;13193;48.874;9.086;2022-07-23T13:45:49;29.20;1.00
290;DHT22;13193;48.874;9.086;2022-07-23T13:48:15;29.30;1.00
290;DHT22;13193;48.874;9.086;2022-07-23T13:50:42;29.30;1.00
290;DHT22;13193;48.874;9.086;2022-07-23T13:53:12;29.30;1.00
290;DHT22;13193;48.874;9.086;2022-07-23T13:55:38;29.30;1.00
290;DHT22;13193;48.874;9.086;2022-07-23T13:58:06;29.40;1.00
290;DHT22;13193;48.874;9.086;2022-07-23T14:00:34;29.40;1.00
290;DHT22;13193;48.874;9.086;2022-07-23T14:03:00;29.40;1.00
290;DHT22;13193;48.874;9.086;2022-07-23T14:05:26;29.50;1.00
290;DHT22;13193;48.874;9.086;2022-07-23T14:07:52;29.60;1.00
290;DHT22;13193;48.874;9.086;2022-07-23T14:10:20;29.60;1.00
290;DHT22;13193;48.874;9.086;2022-07-23T14:12:47;29.70;1.00
290;DHT22;13193;48.874;9.086;2022-07-23T14:15:14;29.70;1.00
290;DHT22;13193;48.874;9.086;2022-07-23T14:17:42;29.70;1.00
290;DHT22;13193;48.874;9.086;2022-07-23T14:20:09;29.70;1.00
290;DHT22;13193;48.874;9.086;2022-07-23T14:22:35;29.70;1.00
290;DHT22;13193;48.874;9.086;2022-07-23T14:25:01;29.80;1.00
290;DHT22;13193;48.874;9.086;2022-07-23T14:27:28;29.80;1.00
290;DHT22;13193;48.874;9.086;2022-07-23T14:29:54;29.80;1.00
290;DHT22;13193;48.874;9.086;2022-07-23T14:32:20;29.80;1.00
290;DHT22;13193;48.874;9.086;2022-07-23T14:34:46;29.90;1.00
290;DHT22;13193;48.874;9.086;2022-07-23T14:37:12;29.90;1.00
290;DHT22;13193;48.874;9.086;2022-07-23T14:39:42;29.90;1.00
290;DHT22;13193;48.874;9.086;2022-07-23T14:42:08;29.80;1.00
290;DHT22;13193;48.874;9.086;2022-07-23T14:44:35;29.70;1.00
290;DHT22;13193;48.874;9.086;2022-07-23T14:47:01;29.80;1.00
290;DHT22;13193;48.874;9.086;2022-07-23T14:49:33;29.90;1.00
290;DHT22;13193;48.874;9.086;2022-07-23T14:51:59;30.10;1.00
290;DHT22;13193;48.874;9.086;2022-07-23T14:54:27;30.20;1.00
290;DHT22;13193;48.874;9.086;2022-07-23T14:56:56;30.20;1.00
290;DHT22;13193;48.874;9.086;2022-07-23T14:59:25;30.30;1.00
290;DHT22;13193;48.874;9.086;2022-07-23T15:01:51;30.30;1.00
290;DHT22;13193;48.874;9.086;2022-07-23T15:04:16;30.40;1.00
290;DHT22;13193;48.874;9.086;2022-07-23T15:06:42;30.50;1.00
290;DHT22;13193;48.874;9.086;2022-07-23T15:09:08;30.40;1.00
290;DHT22;13193;48.874;9.086;2022-07-23T15:11:34;30.40;1.00
290;DHT22;13193;48.874;9.086;2022-07-23T15:14:02;30.40;1.00
290;DHT22;13193;48.874;9.086;2022-07-23T15:16:27;30.40;1.00
290;DHT22;13193;48.874;9.086;2022-07-23T15:18:53;30.30;1.00
290;DHT22;13193;48.874;9.086;2022-07-23T15:21:19;30.30;1.00
290;DHT22;13193;48.874;9.086;2022-07-23T15:23:45;30.30;1.00
290;DHT22;13193;48.874;9.086;2022-07-23T15:26:10;30.20;1.00
290;DHT22;13193;48.874;9.086;2022-07-23T15:28:36;30.20;1.00
290;DHT22;13193;48.874;9.086;2022-07-23T15:31:03;30.20;1.00
290;DHT22;13193;48.874;9.086;2022-07-23T15:33:29;30.30;1.00
290;DHT22;13193;48.874;9.086;2022-07-23T15:35:55;30.30;1.00
290;DHT22;13193;48.874;9.086;2022-07-23T15:38:22;30.40;1.00
290;DHT22;13193;48.874;9.086;2022-07-23T15:40:47;30.40;1.00
290;DHT22;13193;48.874;9.086;2022-07-23T15:43:13;30.40;1.00
290;DHT22;13193;48.874;9.086;2022-07-23T15:45:39;30.50;1.00
290;DHT22;13193;48.874;9.086;2022-07-23T15:48:05;30.60;1.00
290;DHT22;13193;48.874;9.086;2022-07-23T15:50:31;30.60;1.00
290;DHT22;13193;48.874;9.086;2022-07-23T15:52:57;30.40;1.00
290;DHT22;13193;48.874;9.086;2022-07-23T15:55:23;30.30;1.00
290;DHT22;13193;48.874;9.086;2022-07-23T15:57:49;30.30;1.00
290;DHT22;13193;48.874;9.086;2022-07-23T16:00:15;30.30;1.00
290;DHT22;13193;48.874;9.086;2022-07-23T16:02:40;30.20;1.00
290;DHT22;13193;48.874;9.086;2022-07-23T16:05:06;30.10;1.00
290;DHT22;13193;48.874;9.086;2022-07-23T16:07:32;30.10;1.00
290;DHT22;13193;48.874;9.086;2022-07-23T16:10:05;29.90;1.00
290;DHT22;13193;48.874;9.086;2022-07-23T16:12:31;29.90;1.00
290;DHT22;13193;48.874;9.086;2022-07-23T16:14:57;29.80;1.00
290;DHT22;13193;48.874;9.086;2022-07-23T16:17:22;29.80;1.00
290;DHT22;13193;48.874;9.086;2022-07-23T16:19:51;29.70;1.00
290;DHT22;13193;48.874;9.086;2022-07-23T16:22:16;29.70;1.00
290;DHT22;13193;48.874;9.086;2022-07-23T16:24:44;29.80;1.00
290;DHT22;13193;48.874;9.086;2022-07-23T16:27:10;29.90;1.00
290;DHT22;13193;48.874;9.086;2022-07-23T16:29:39;30.00;1.00
290;DHT22;13193;48.874;9.086;2022-07-23T16:32:07;30.00;1.00
290;DHT22;13193;48.874;9.086;2022-07-23T16:34:33;30.00;1.00
290;DHT22;13193;48.874;9.086;2022-07-23T16:36:58;30.00;1.00
290;DHT22;13193;48.874;9.086;2022-07-23T16:39:27;29.90;1.00
290;DHT22;13193;48.874;9.086;2022-07-23T16:41:52;29.70;1.00
290;DHT22;13193;48.874;9.086;2022-07-23T16:44:18;29.40;1.00
290;DHT22;13193;48.874;9.086;2022-07-23T16:46:44;29.20;1.00
290;DHT22;13193;48.874;9.086;2022-07-23T16:49:09;29.10;1.00
290;DHT22;13193;48.874;9.086;2022-07-23T16:51:35;29.00;1.00
290;DHT22;13193;48.874;9.086;2022-07-23T16:54:03;28.90;1.00
290;DHT22;13193;48.874;9.086;2022-07-23T16:56:29;28.90;1.00
290;DHT22;13193;48.874;9.086;2022-07-23T16:58:55;28.90;1.00